createdAt,value
2018-08-01T13:09:02.661Z,37.27
2018-08-01T13:10:02.641Z,37.91
2018-08-01T13:11:02.623Z,37.72
2018-08-01T13:12:02.608Z,37.56
2018-08-01T13:13:02.594Z,38.01
2018-08-01T13:14:02.582Z,37.82
2018-08-01T13:15:02.571Z,37.24
2018-08-01T13:16:02.559Z,37.10
2018-08-01T13:17:02.548Z,37.37
2018-08-01T13:18:02.537Z,36.83
2018-08-01T13:19:02.526Z,36.80
2018-08-01T13:20:02.518Z,36.81
2018-08-01T13:21:02.506Z,35.92
2018-08-01T13:22:02.498Z,34.91
2018-08-01T13:23:02.489Z,35.18
2018-08-01T13:24:02.479Z,35.00
2018-08-01T13:25:02.471Z,35.92
2018-08-01T13:26:02.463Z,36.32
2018-08-01T13:27:02.458Z,36.83
2018-08-01T13:28:02.449Z,36.73
2018-08-01T13:29:02.437Z,36.50
2018-08-01T13:30:02.431Z,36.88
2018-08-01T13:31:02.420Z,37.22
2018-08-01T13:32:02.427Z,37.25
2018-08-01T13:33:02.405Z,37.25
2018-08-01T13:34:02.397Z,37.84
2018-08-01T13:35:02.389Z,37.91
2018-08-01T13:36:02.381Z,37.69
2018-08-01T13:37:02.379Z,37.22
2018-08-01T13:38:02.367Z,37.34
2018-08-01T13:39:02.420Z,37.47
2018-08-01T13:40:02.352Z,37.93
2018-08-01T13:41:02.351Z,38.18
2018-08-01T13:42:02.338Z,38.22
2018-08-01T13:43:02.330Z,38.31
2018-08-01T13:44:02.416Z,38.01
2018-08-01T13:45:02.322Z,38.11
2018-08-01T13:46:02.310Z,37.94
2018-08-01T13:47:02.301Z,36.94
2018-08-01T13:48:02.294Z,36.66
2018-08-01T13:49:02.288Z,36.68
2018-08-01T13:50:02.289Z,36.72
2018-08-01T13:51:02.312Z,36.20
2018-08-01T13:52:02.267Z,35.33
2018-08-01T13:53:02.258Z,35.26
2018-08-01T13:54:02.252Z,35.74
2018-08-01T13:55:02.247Z,35.94
2018-08-01T13:56:02.239Z,36.29
2018-08-01T13:57:02.229Z,36.38
2018-08-01T13:58:02.223Z,36.28
2018-08-01T13:59:02.215Z,35.66
2018-08-01T14:00:02.207Z,35.37
2018-08-01T14:01:02.201Z,35.58
2018-08-01T14:02:02.197Z,35.07
2018-08-01T14:03:02.187Z,34.52
2018-08-01T14:04:02.180Z,34.53
2018-08-01T14:05:02.171Z,34.17
2018-08-01T14:06:02.163Z,33.50
2018-08-01T14:07:02.155Z,33.93
2018-08-01T14:08:02.148Z,33.86
2018-08-01T14:09:02.140Z,33.90
2018-08-01T14:10:02.133Z,33.88
2018-08-01T14:11:02.125Z,33.88
2018-08-01T14:12:02.116Z,34.32
2018-08-01T14:13:02.108Z,35.28
2018-08-01T14:14:02.100Z,35.72
2018-08-01T14:15:02.093Z,35.47
2018-08-01T14:16:02.087Z,34.96
2018-08-01T14:17:02.141Z,34.62
2018-08-01T14:18:02.068Z,34.56
2018-08-01T14:19:02.085Z,35.55
2018-08-01T14:20:02.052Z,36.12
2018-08-01T14:21:02.044Z,36.84
2018-08-01T14:22:02.036Z,37.29
2018-08-01T14:23:02.028Z,37.47
2018-08-01T14:24:02.020Z,37.62
2018-08-01T14:25:02.013Z,37.21
2018-08-01T14:26:02.007Z,37.12
2018-08-01T14:27:01.997Z,37.12
2018-08-01T14:28:01.988Z,37.18
2018-08-01T14:29:01.980Z,37.17
2018-08-01T14:30:01.973Z,37.03
2018-08-01T14:31:01.967Z,36.41
2018-08-01T14:32:01.958Z,36.54
2018-08-01T14:33:01.995Z,36.76
2018-08-01T14:34:01.941Z,37.10
2018-08-01T14:35:01.934Z,37.31
2018-08-01T14:36:01.925Z,37.13
2018-08-01T14:37:01.919Z,36.71
2018-08-01T14:38:01.914Z,36.76
2018-08-01T14:39:01.903Z,37.06
2018-08-01T14:40:01.896Z,37.07
2018-08-01T14:41:01.891Z,36.93
2018-08-01T14:42:01.880Z,36.78
2018-08-01T14:43:01.873Z,36.78
2018-08-01T14:44:01.867Z,36.85
2018-08-01T14:45:01.859Z,36.62
2018-08-01T14:46:01.851Z,36.78
2018-08-01T14:47:01.843Z,36.95
2018-08-01T14:48:01.833Z,36.73
2018-08-01T14:49:01.827Z,37.10
2018-08-01T14:50:01.821Z,37.39
2018-08-01T14:51:01.812Z,37.82
2018-08-01T14:52:01.804Z,37.57
2018-08-01T14:53:01.796Z,37.66
2018-08-01T14:54:01.790Z,37.96
2018-08-01T14:55:01.781Z,38.01
2018-08-01T14:56:01.776Z,37.93
2018-08-01T14:57:01.768Z,37.66
2018-08-01T14:58:01.761Z,37.59
2018-08-01T14:59:01.751Z,36.76
2018-08-01T15:00:01.744Z,36.49
2018-08-01T15:01:01.738Z,35.96
2018-08-01T15:02:01.731Z,34.96
2018-08-01T15:03:01.723Z,34.77
2018-08-01T15:04:01.715Z,35.28
2018-08-01T15:05:01.708Z,35.77
2018-08-01T15:06:01.700Z,35.74
2018-08-01T15:07:01.695Z,35.21
2018-08-01T15:08:01.684Z,35.19
2018-08-01T15:09:01.676Z,34.97
2018-08-01T15:10:01.670Z,35.38
2018-08-01T15:11:01.660Z,35.93
2018-08-01T15:12:01.652Z,36.39
2018-08-01T15:13:01.644Z,36.44
2018-08-01T15:14:01.637Z,36.27
2018-08-01T15:15:01.629Z,36.60
2018-08-01T15:16:01.625Z,36.07
2018-08-01T15:17:01.612Z,36.09
2018-08-01T15:18:01.607Z,36.12
2018-08-01T15:19:01.598Z,36.41
2018-08-01T15:20:01.590Z,36.41
2018-08-01T15:21:01.582Z,36.60
2018-08-01T15:22:01.575Z,36.23
2018-08-01T15:23:01.564Z,35.74
2018-08-01T15:24:01.558Z,35.65
2018-08-01T15:25:01.552Z,36.08
2018-08-01T15:26:01.934Z,36.46
2018-08-01T15:27:01.537Z,36.87
2018-08-01T15:28:01.525Z,37.13
2018-08-01T15:29:01.518Z,37.47
2018-08-01T15:30:01.509Z,37.49
2018-08-01T15:31:01.503Z,37.81
2018-08-01T15:32:01.492Z,37.86
2018-08-01T15:33:01.486Z,38.00
2018-08-01T15:34:01.478Z,38.03
2018-08-01T15:35:01.471Z,37.81
2018-08-01T15:36:01.463Z,37.88
2018-08-01T15:37:01.455Z,37.29
2018-08-01T15:38:01.446Z,37.03
2018-08-01T15:39:01.438Z,36.57
2018-08-01T15:40:01.442Z,35.75
2018-08-01T15:41:01.432Z,35.06
2018-08-01T15:42:01.415Z,34.59
2018-08-01T15:43:01.408Z,34.52
2018-08-01T15:44:01.413Z,34.10
2018-08-01T15:45:01.395Z,33.86
2018-08-01T15:46:01.416Z,33.66
2018-08-01T15:47:01.375Z,33.38
2018-08-01T15:48:01.369Z,33.22
2018-08-01T15:49:01.363Z,32.99
2018-08-01T15:50:01.352Z,32.93
2018-08-01T15:51:15.170Z,32.85
2018-08-01T15:52:15.238Z,32.78
2018-08-01T15:53:15.154Z,32.59
2018-08-01T15:54:15.207Z,32.50
2018-08-01T15:55:15.133Z,32.45
2018-08-01T15:56:15.126Z,32.45
2018-08-01T15:57:15.116Z,32.45
2018-08-01T15:58:15.108Z,32.19
2018-08-01T15:59:15.381Z,32.06
2018-08-01T16:00:15.091Z,32.00
2018-08-01T16:01:15.082Z,32.03
2018-08-01T16:02:15.074Z,31.95
2018-08-01T16:03:15.065Z,32.00
2018-08-01T16:04:15.056Z,31.99
2018-08-01T16:05:15.046Z,32.01
2018-08-01T16:06:15.094Z,32.10
2018-08-01T16:07:15.029Z,32.13
2018-08-01T16:08:15.021Z,32.32
2018-08-01T16:09:15.012Z,32.11
2018-08-01T16:10:15.001Z,31.85
2018-08-01T16:11:14.993Z,31.53
2018-08-01T16:12:14.983Z,31.38
2018-08-01T16:13:14.974Z,31.50
2018-08-01T16:14:14.966Z,31.62
2018-08-01T16:15:14.955Z,31.85
2018-08-01T16:16:14.947Z,32.28
2018-08-01T16:17:14.954Z,32.19
2018-08-01T16:18:14.930Z,32.59
2018-08-01T16:19:14.918Z,32.55
2018-08-01T16:20:14.908Z,32.79
2018-08-01T16:21:14.898Z,33.00
2018-08-01T16:22:14.890Z,32.97
2018-08-01T16:23:14.882Z,32.75
2018-08-01T16:24:14.871Z,32.60
2018-08-01T16:25:14.860Z,32.55
2018-08-01T16:26:14.852Z,32.32
2018-08-01T16:27:14.841Z,32.08
2018-08-01T16:28:14.833Z,31.70
2018-08-01T16:29:14.821Z,31.32
2018-08-01T16:30:14.812Z,31.12
2018-08-01T16:31:14.801Z,30.89
2018-08-01T16:32:14.869Z,30.88
2018-08-01T16:33:14.783Z,30.79
2018-08-01T16:34:14.774Z,30.57
2018-08-01T16:35:14.761Z,30.80
2018-08-01T16:36:14.796Z,31.04
2018-08-01T16:37:14.743Z,31.48
2018-08-01T16:38:14.732Z,31.70
2018-08-01T16:39:14.723Z,32.00
2018-08-01T16:40:14.713Z,31.80
2018-08-01T16:41:14.702Z,31.62
2018-08-01T16:42:14.705Z,31.34
2018-08-01T16:43:14.681Z,31.26
2018-08-01T16:44:14.670Z,31.06
2018-08-01T16:45:14.662Z,30.83
2018-08-01T16:46:14.651Z,30.69
2018-08-01T16:47:14.639Z,30.54
2018-08-01T16:48:14.629Z,30.37
2018-08-01T16:49:14.619Z,30.19
2018-08-01T16:50:14.609Z,30.24
2018-08-01T16:51:14.599Z,30.15
2018-08-01T16:52:14.587Z,30.19
2018-08-01T16:53:14.578Z,30.10
2018-08-01T16:54:14.565Z,30.04
2018-08-01T16:55:14.555Z,30.08
2018-08-01T16:56:14.544Z,30.11
2018-08-01T16:57:14.533Z,29.98
2018-08-01T16:58:14.522Z,29.97
2018-08-01T16:59:14.512Z,29.89
2018-08-01T17:00:14.501Z,29.98
2018-08-01T17:01:14.490Z,29.98
2018-08-01T17:02:14.480Z,29.94
2018-08-01T17:03:14.488Z,29.90
2018-08-01T17:04:14.457Z,30.00
2018-08-01T17:05:14.447Z,29.95
2018-08-01T17:06:14.442Z,29.97
2018-08-01T17:07:14.423Z,30.01
2018-08-01T17:08:14.417Z,30.05
2018-08-01T17:09:14.402Z,29.95
2018-08-01T17:10:14.416Z,29.98
2018-08-01T17:11:14.380Z,29.95
2018-08-01T17:12:14.370Z,29.94
2018-08-01T17:13:14.357Z,29.92
2018-08-01T17:14:14.348Z,29.92
2018-08-01T17:15:14.339Z,29.94
2018-08-01T17:16:14.329Z,29.97
2018-08-01T17:17:14.313Z,29.90
2018-08-01T17:18:14.303Z,29.89
2018-08-01T17:19:14.291Z,29.89
2018-08-01T17:20:14.284Z,29.92
2018-08-01T17:21:14.270Z,29.97
2018-08-01T17:22:14.258Z,29.87
2018-08-01T17:23:14.245Z,29.85
2018-08-01T17:24:14.234Z,29.86
2018-08-01T17:25:14.224Z,29.86
2018-08-01T17:26:14.222Z,29.83
2018-08-01T17:27:14.201Z,29.78
2018-08-01T17:28:14.209Z,29.87
2018-08-01T17:29:14.178Z,29.89
2018-08-01T17:30:14.167Z,29.95
2018-08-01T17:31:14.154Z,29.92
2018-08-01T17:32:14.145Z,29.92
2018-08-01T17:33:14.133Z,29.94
2018-08-01T17:34:14.121Z,29.94
2018-08-01T17:35:14.109Z,29.95
2018-08-01T17:36:14.098Z,29.94
2018-08-01T17:37:14.088Z,29.86
2018-08-01T17:38:14.076Z,29.90
2018-08-01T17:39:14.065Z,30.04
2018-08-01T17:40:14.053Z,30.00
2018-08-01T17:41:14.041Z,30.00
2018-08-01T17:42:14.031Z,30.00
2018-08-01T17:43:14.018Z,29.92
2018-08-01T17:44:14.008Z,29.92
2018-08-01T17:45:13.997Z,29.94
2018-08-01T17:46:14.005Z,29.86
2018-08-01T17:47:13.972Z,29.95
2018-08-01T17:48:13.961Z,29.82
2018-08-01T17:49:13.965Z,29.79
2018-08-01T17:50:13.939Z,29.83
2018-08-01T17:51:13.926Z,29.79
2018-08-01T17:52:13.915Z,29.82
2018-08-01T17:53:13.904Z,29.68
2018-08-01T17:54:13.908Z,29.64
2018-08-01T17:55:13.881Z,29.68
2018-08-01T17:56:13.869Z,29.61
2018-08-01T17:57:13.856Z,29.65
2018-08-01T17:58:13.847Z,29.52
2018-08-01T17:59:13.833Z,29.55
2018-08-01T18:00:13.822Z,29.51
2018-08-01T18:01:13.812Z,29.46
2018-08-01T18:02:13.801Z,29.48
2018-08-01T18:03:13.788Z,29.43
2018-08-01T18:04:13.775Z,29.43
2018-08-01T18:05:13.765Z,29.24
2018-08-01T18:06:13.752Z,29.33
2018-08-01T18:07:13.741Z,29.28
2018-08-01T18:08:13.780Z,29.28
2018-08-01T18:09:13.716Z,29.19
2018-08-01T18:10:13.704Z,29.14
2018-08-01T18:11:13.693Z,29.12
2018-08-01T18:12:13.683Z,29.05
2018-08-01T18:13:13.670Z,28.98
2018-08-01T18:14:13.657Z,28.93
2018-08-01T18:15:13.645Z,28.90
2018-08-01T18:16:13.634Z,28.85
2018-08-01T18:17:13.622Z,28.86
2018-08-01T18:18:13.609Z,28.78
2018-08-01T18:19:13.609Z,28.74
2018-08-01T18:20:13.584Z,28.73
2018-08-01T18:21:13.572Z,28.62
2018-08-01T18:22:13.561Z,28.73
2018-08-01T18:23:13.549Z,28.61
2018-08-01T18:24:13.537Z,28.59
2018-08-01T18:25:13.527Z,28.58
2018-08-01T18:26:13.512Z,28.44
2018-08-01T18:27:13.499Z,28.48
2018-08-01T18:28:13.485Z,28.41
2018-08-01T18:29:13.507Z,28.29
2018-08-01T18:30:13.536Z,28.36
2018-08-01T18:31:13.453Z,28.22
2018-08-01T18:32:13.439Z,28.17
2018-08-01T18:33:13.425Z,28.14
2018-08-01T18:34:13.413Z,28.11
2018-08-01T18:35:13.401Z,27.93
2018-08-01T18:36:13.484Z,28.03
2018-08-01T18:37:13.377Z,27.94
2018-08-01T18:38:13.364Z,27.90
2018-08-01T18:39:13.351Z,27.99
2018-08-01T18:40:13.337Z,27.81
2018-08-01T18:41:13.326Z,27.84
2018-08-01T18:42:13.313Z,27.72
2018-08-01T18:43:13.299Z,27.70
2018-08-01T18:44:13.288Z,27.62
2018-08-01T18:45:13.278Z,27.49
2018-08-01T18:46:13.262Z,27.41
2018-08-01T18:47:13.248Z,27.40
2018-08-01T18:48:13.237Z,27.24
2018-08-01T18:49:13.227Z,27.10
2018-08-01T18:50:13.212Z,27.07
2018-08-01T18:51:13.199Z,27.09
2018-08-01T18:52:13.186Z,26.95
2018-08-01T18:53:13.174Z,27.00
2018-08-01T18:54:13.206Z,26.92
2018-08-01T18:55:13.147Z,26.95
2018-08-01T18:56:13.135Z,26.94
2018-08-01T18:57:13.121Z,26.87
2018-08-01T18:58:13.109Z,26.80
2018-08-01T18:59:13.094Z,26.75
2018-08-01T19:00:13.081Z,26.66
2018-08-01T19:01:13.069Z,26.62
2018-08-01T19:02:13.055Z,26.58
2018-08-01T19:03:13.131Z,26.48
2018-08-01T19:04:13.030Z,26.44
2018-08-01T19:05:13.017Z,26.33
2018-08-01T19:06:13.003Z,26.35
2018-08-01T19:07:12.990Z,26.20
2018-08-01T19:08:12.976Z,26.10
2018-08-01T19:09:12.965Z,26.13
2018-08-01T19:10:13.020Z,26.09
2018-08-01T19:11:12.935Z,26.01
2018-08-01T19:12:12.923Z,25.97
2018-08-01T19:13:12.909Z,25.92
2018-08-01T19:14:12.897Z,25.92
2018-08-01T19:15:12.882Z,25.83
2018-08-01T19:16:12.870Z,25.85
2018-08-01T19:17:12.856Z,25.76
2018-08-01T19:18:12.844Z,25.72
2018-08-01T19:19:12.829Z,25.77
2018-08-01T19:20:12.816Z,25.70
2018-08-01T19:21:12.802Z,25.69
2018-08-01T19:22:12.789Z,25.58
2018-08-01T19:23:12.774Z,25.51
2018-08-01T19:24:12.761Z,25.43
2018-08-01T19:25:12.747Z,25.52
2018-08-01T19:26:12.768Z,25.47
2018-08-01T19:27:12.720Z,25.42
2018-08-01T19:28:12.705Z,25.45
2018-08-01T19:29:12.692Z,25.38
2018-08-01T19:30:12.683Z,25.39
2018-08-01T19:31:12.666Z,25.42
2018-08-01T19:32:12.655Z,25.32
2018-08-01T19:33:12.638Z,25.23
2018-08-01T19:34:12.624Z,25.24
2018-08-01T19:35:12.611Z,25.42
2018-08-01T19:36:12.596Z,25.32
2018-08-01T19:37:12.582Z,25.38
2018-08-01T19:38:12.569Z,25.38
2018-08-01T19:39:12.552Z,25.35
2018-08-01T19:40:12.539Z,25.35
2018-08-01T19:41:12.561Z,25.21
2018-08-01T19:42:12.515Z,25.13
2018-08-01T19:43:12.496Z,25.14
2018-08-01T19:44:12.483Z,25.05
2018-08-01T19:45:12.469Z,25.08
2018-08-01T19:46:12.456Z,25.03
2018-08-01T19:47:12.448Z,25.00
2018-08-01T19:48:12.431Z,25.02
2018-08-01T19:49:12.412Z,24.99
2018-08-01T19:50:12.423Z,24.98
2018-08-01T19:51:12.894Z,24.93
2018-08-01T19:52:12.828Z,24.93
2018-08-01T19:53:12.788Z,24.91
2018-08-01T19:54:12.985Z,25.00
2018-08-01T19:55:13.008Z,25.08
2018-08-01T19:56:12.868Z,25.06
2018-08-01T19:57:12.842Z,25.15
2018-08-01T19:58:12.429Z,25.09
2018-08-01T19:59:12.273Z,25.15
2018-08-01T20:00:12.596Z,25.08
2018-08-01T20:01:12.241Z,25.06
2018-08-01T20:02:12.229Z,25.09
2018-08-01T20:03:12.211Z,25.14
2018-08-01T20:04:12.200Z,25.09
2018-08-01T20:05:12.185Z,25.05
2018-08-01T20:06:12.168Z,25.09
2018-08-01T20:07:12.222Z,25.00
2018-08-01T20:08:12.140Z,24.98
2018-08-01T20:09:12.125Z,25.02
2018-08-01T20:10:12.110Z,25.02
2018-08-01T20:11:12.094Z,25.05
2018-08-01T20:12:12.081Z,25.08
2018-08-01T20:13:12.067Z,25.09
2018-08-01T20:14:12.053Z,25.05
2018-08-01T20:15:12.036Z,25.08
2018-08-01T20:16:12.023Z,24.96
2018-08-01T20:17:12.009Z,24.88
2018-08-01T20:18:11.995Z,24.91
2018-08-01T20:19:11.978Z,24.90
2018-08-01T20:20:11.965Z,24.95
2018-08-01T20:21:11.949Z,24.88
2018-08-01T20:22:11.936Z,24.88
2018-08-01T20:23:11.920Z,24.85
2018-08-01T20:24:11.907Z,24.88
2018-08-01T20:25:11.894Z,24.87
2018-08-01T20:26:11.878Z,24.85
2018-08-01T20:27:11.862Z,24.88
2018-08-01T20:28:11.852Z,24.87
2018-08-01T20:29:11.834Z,24.95
2018-08-01T20:30:11.820Z,24.85
2018-08-01T20:31:11.803Z,24.83
2018-08-01T20:32:11.790Z,24.78
2018-08-01T20:33:11.776Z,24.78
2018-08-01T20:34:11.761Z,24.81
2018-08-01T20:35:11.745Z,24.80
2018-08-01T20:36:11.732Z,24.80
2018-08-01T20:37:11.717Z,24.65
2018-08-01T20:38:11.701Z,24.71
2018-08-01T20:39:11.685Z,24.76
2018-08-01T20:40:11.672Z,24.68
2018-08-01T20:41:11.739Z,24.64
2018-08-01T20:42:11.643Z,24.62
2018-08-01T20:43:11.629Z,24.62
2018-08-01T20:44:11.612Z,24.62
2018-08-01T20:45:11.598Z,24.55
2018-08-01T20:46:11.585Z,24.57
2018-08-01T20:47:11.568Z,24.49
2018-08-01T20:48:11.553Z,24.43
2018-08-01T20:49:11.539Z,24.52
2018-08-01T20:50:11.525Z,24.43
2018-08-01T20:51:11.508Z,24.30
2018-08-01T20:52:11.496Z,24.28
2018-08-01T20:53:11.632Z,24.39
2018-08-01T20:54:11.466Z,24.27
2018-08-01T20:55:11.448Z,24.28
2018-08-01T20:56:11.434Z,24.13
2018-08-01T20:57:11.421Z,24.15
2018-08-01T20:58:11.406Z,24.18
2018-08-01T20:59:11.389Z,24.16
2018-08-01T21:00:11.375Z,24.12
2018-08-01T21:01:11.360Z,24.06
2018-08-01T21:02:11.346Z,24.08
2018-08-01T21:03:11.334Z,24.08
2018-08-01T21:04:11.316Z,24.12
2018-08-01T21:05:11.300Z,24.09
2018-08-01T21:06:11.334Z,24.10
2018-08-01T21:07:11.270Z,24.08
2018-08-01T21:08:11.256Z,24.02
2018-08-01T21:09:11.242Z,24.06
2018-08-01T21:10:11.227Z,23.94
2018-08-01T21:11:11.213Z,24.06
2018-08-01T21:12:11.243Z,23.95
2018-08-01T21:13:11.186Z,23.95
2018-08-01T21:14:11.166Z,23.97
2018-08-01T21:15:11.152Z,23.95
2018-08-01T21:16:11.137Z,23.95
2018-08-01T21:17:11.120Z,23.98
2018-08-01T21:18:11.161Z,24.00
2018-08-01T21:19:11.095Z,23.95
2018-08-01T21:20:11.078Z,23.95
2018-08-01T21:21:11.060Z,24.00
2018-08-01T21:22:11.047Z,24.03
2018-08-01T21:23:11.030Z,23.94
2018-08-01T21:24:11.015Z,24.00
2018-08-01T21:25:11.091Z,23.90
2018-08-01T21:26:10.985Z,23.94
2018-08-01T21:27:10.970Z,23.95
2018-08-01T21:28:10.954Z,23.94
2018-08-01T21:29:10.941Z,23.94
2018-08-01T21:30:10.924Z,23.91
2018-08-01T21:31:10.909Z,23.83
2018-08-01T21:32:10.894Z,23.79
2018-08-01T21:33:10.880Z,23.83
2018-08-01T21:34:10.866Z,23.83
2018-08-01T21:35:10.896Z,23.78
2018-08-01T21:36:10.834Z,23.79
2018-08-01T21:37:10.819Z,23.75
2018-08-01T21:38:10.804Z,23.78
2018-08-01T21:39:10.789Z,23.79
2018-08-01T21:40:10.774Z,23.76
2018-08-01T21:41:10.759Z,23.73
2018-08-01T21:42:10.758Z,23.72
2018-08-01T21:43:10.729Z,23.72
2018-08-01T21:44:10.712Z,23.75
2018-08-01T21:45:10.698Z,23.70
2018-08-01T21:46:10.683Z,23.85
2018-08-01T21:47:10.671Z,23.78
2018-08-01T21:48:10.652Z,23.80
2018-08-01T21:49:10.638Z,23.79
2018-08-01T21:50:10.623Z,23.68
2018-08-01T21:51:10.606Z,23.68
2018-08-01T21:52:10.594Z,23.75
2018-08-01T21:53:10.577Z,23.65
2018-08-01T21:54:10.562Z,23.60
2018-08-01T21:55:10.549Z,23.60
2018-08-01T21:56:10.531Z,23.65
2018-08-01T21:57:10.516Z,23.69
2018-08-01T21:58:10.500Z,23.60
2018-08-01T21:59:10.487Z,23.61
2018-08-01T22:00:10.470Z,23.61
2018-08-01T22:01:10.456Z,23.55
2018-08-01T22:02:10.443Z,23.60
2018-08-01T22:03:10.424Z,23.50
2018-08-01T22:04:10.409Z,23.53
2018-08-01T22:05:10.396Z,23.47
2018-08-01T22:06:10.379Z,23.48
2018-08-01T22:07:10.379Z,23.46
2018-08-01T22:08:10.350Z,23.39
2018-08-01T22:09:10.333Z,23.39
2018-08-01T22:10:10.317Z,23.35
2018-08-01T22:11:10.301Z,23.33
2018-08-01T22:12:10.289Z,23.33
2018-08-01T22:13:10.270Z,23.32
2018-08-01T22:14:10.256Z,23.17
2018-08-01T22:15:10.240Z,23.28
2018-08-01T22:16:10.224Z,23.23
2018-08-01T22:17:10.209Z,23.27
2018-08-01T22:18:10.195Z,23.19
2018-08-01T22:19:10.182Z,23.16
2018-08-01T22:20:10.163Z,23.10
2018-08-01T22:21:10.148Z,23.10
2018-08-01T22:22:10.132Z,23.12
2018-08-01T22:23:10.117Z,23.12
2018-08-01T22:24:10.100Z,23.12
2018-08-01T22:25:10.085Z,23.13
2018-08-01T22:26:10.070Z,23.17
2018-08-01T22:27:10.059Z,23.02
2018-08-01T22:28:10.038Z,23.13
2018-08-01T22:29:10.023Z,23.15
2018-08-01T22:30:10.009Z,23.07
2018-08-01T22:31:09.992Z,23.12
2018-08-01T22:32:09.977Z,23.00
2018-08-01T22:33:09.961Z,23.02
2018-08-01T22:34:09.946Z,22.97
2018-08-01T22:35:09.928Z,23.04
2018-08-01T22:36:09.916Z,22.97
2018-08-01T22:37:09.898Z,22.94
2018-08-01T22:38:09.882Z,23.05
2018-08-01T22:39:09.867Z,22.92
2018-08-01T22:40:09.852Z,22.91
2018-08-01T22:41:09.836Z,22.88
2018-08-01T22:42:09.821Z,22.83
2018-08-01T22:43:09.804Z,22.86
2018-08-01T22:44:09.790Z,22.82
2018-08-01T22:45:09.777Z,22.80
2018-08-01T22:46:09.757Z,22.88
2018-08-01T22:47:09.742Z,22.88
2018-08-01T22:48:09.727Z,22.85
2018-08-01T22:49:09.713Z,22.83
2018-08-01T22:50:09.694Z,22.83
2018-08-01T22:51:09.679Z,22.86
2018-08-01T22:52:09.662Z,22.85
2018-08-01T22:53:09.649Z,22.76
2018-08-01T22:54:09.713Z,22.79
2018-08-01T22:55:09.616Z,22.73
2018-08-01T22:56:09.600Z,22.76
2018-08-01T22:57:09.589Z,22.77
2018-08-01T22:58:09.572Z,22.82
2018-08-01T22:59:09.554Z,22.85
2018-08-01T23:00:09.537Z,22.90
2018-08-01T23:01:09.522Z,22.97
2018-08-01T23:02:09.506Z,23.00
2018-08-01T23:03:09.488Z,22.97
2018-08-01T23:04:09.474Z,22.92
2018-08-01T23:05:09.462Z,22.95
2018-08-01T23:06:09.443Z,22.88
2018-08-01T23:07:09.426Z,22.90
2018-08-01T23:08:09.410Z,22.86
2018-08-01T23:09:09.394Z,22.80
2018-08-01T23:10:09.378Z,22.76
2018-08-01T23:11:09.362Z,22.75
2018-08-01T23:12:09.349Z,22.67
2018-08-01T23:13:09.340Z,22.67
2018-08-01T23:14:09.313Z,22.64
2018-08-01T23:15:09.298Z,22.57
2018-08-01T23:16:09.281Z,22.61
2018-08-01T23:17:09.267Z,22.49
2018-08-01T23:18:09.249Z,22.46
2018-08-01T23:19:09.235Z,22.33
2018-08-01T23:20:09.217Z,22.35
2018-08-01T23:21:09.201Z,22.27
2018-08-01T23:22:09.185Z,22.27
2018-08-01T23:23:09.170Z,22.37
2018-08-01T23:24:09.152Z,22.27
2018-08-01T23:25:09.137Z,22.28
2018-08-01T23:26:09.123Z,22.21
2018-08-01T23:27:09.105Z,22.18
2018-08-01T23:28:09.112Z,22.24
2018-08-01T23:29:09.079Z,22.15
2018-08-01T23:30:09.057Z,22.22
2018-08-01T23:31:09.043Z,22.22
2018-08-01T23:32:09.024Z,22.18
2018-08-01T23:33:09.011Z,22.12
2018-08-01T23:34:08.992Z,22.07
2018-08-01T23:35:08.975Z,22.06
2018-08-01T23:36:08.977Z,21.91
2018-08-01T23:37:08.944Z,21.91
2018-08-01T23:38:08.928Z,21.84
2018-08-01T23:39:08.911Z,21.74
2018-08-01T23:40:08.899Z,21.67
2018-08-01T23:41:08.879Z,21.62
2018-08-01T23:42:08.863Z,21.56
2018-08-01T23:43:08.848Z,21.58
2018-08-01T23:44:08.831Z,21.40
2018-08-01T23:45:08.814Z,21.58
2018-08-01T23:46:08.798Z,21.49
2018-08-01T23:47:08.781Z,21.47
2018-08-01T23:48:08.765Z,21.52
2018-08-01T23:49:08.749Z,21.59
2018-08-01T23:50:08.732Z,21.44
2018-08-01T23:51:08.715Z,21.49
2018-08-01T23:52:08.699Z,21.43
2018-08-01T23:53:08.681Z,21.43
2018-08-01T23:54:08.668Z,21.40
2018-08-01T23:55:08.650Z,21.35
2018-08-01T23:56:08.633Z,21.22
2018-08-01T23:57:08.616Z,21.29
2018-08-01T23:58:08.601Z,21.19
2018-08-01T23:59:08.583Z,21.14
